createdAt,value
2017-12-24T00:02:23.590Z,9.60
2017-12-24T00:04:51.053Z,9.60
2017-12-24T00:07:20.031Z,9.60
2017-12-24T00:09:47.602Z,9.80
2017-12-24T00:12:15.177Z,9.60
2017-12-24T00:14:43.413Z,9.60
2017-12-24T00:17:10.943Z,9.70
2017-12-24T00:19:38.369Z,9.60
2017-12-24T00:22:05.851Z,9.60
2017-12-24T00:24:34.092Z,9.70
2017-12-24T00:27:01.558Z,9.50
2017-12-24T00:29:29.026Z,9.70
2017-12-24T00:31:57.264Z,9.80
2017-12-24T00:34:24.740Z,9.80
2017-12-24T00:36:52.224Z,9.90
2017-12-24T00:39:20.445Z,9.90
2017-12-24T00:41:47.932Z,10.00
2017-12-24T00:44:15.412Z,9.90
2017-12-24T00:46:42.883Z,9.90
2017-12-24T00:49:11.119Z,9.90
2017-12-24T00:51:38.610Z,9.70
2017-12-24T00:54:06.851Z,9.90
2017-12-24T00:56:34.327Z,9.90
2017-12-24T00:59:01.791Z,9.90
2017-12-24T01:01:29.264Z,9.90
2017-12-24T01:03:57.491Z,9.90
2017-12-24T01:06:25.232Z,9.90
2017-12-24T01:08:52.714Z,9.90
2017-12-24T01:11:20.299Z,9.90
2017-12-24T01:13:47.777Z,9.90
2017-12-24T01:16:15.247Z,10.00
2017-12-24T01:18:43.482Z,9.90
2017-12-24T01:21:11.004Z,9.90
2017-12-24T01:23:38.468Z,9.90
2017-12-24T01:26:05.976Z,9.90
2017-12-24T01:28:33.434Z,9.90
2017-12-24T01:31:01.907Z,10.00
2017-12-24T01:33:29.379Z,9.80
2017-12-24T01:35:56.935Z,10.10
2017-12-24T01:38:24.437Z,10.10
2017-12-24T01:40:51.936Z,10.10
2017-12-24T01:43:19.566Z,10.00
2017-12-24T01:45:47.770Z,10.10
2017-12-24T01:48:15.244Z,10.10
2017-12-24T01:50:43.481Z,10.00
2017-12-24T01:53:10.979Z,10.10
2017-12-24T01:55:38.447Z,10.10
2017-12-24T01:58:05.923Z,10.10
2017-12-24T02:00:34.160Z,10.10
2017-12-24T02:03:01.649Z,10.00
2017-12-24T02:05:29.198Z,10.00
2017-12-24T02:07:56.679Z,10.10
2017-12-24T02:10:24.213Z,10.00
2017-12-24T02:12:51.686Z,10.10
2017-12-24T02:15:19.927Z,10.10
2017-12-24T02:17:47.412Z,10.10
2017-12-24T02:20:14.884Z,10.10
2017-12-24T02:22:43.144Z,10.10
2017-12-24T02:25:10.606Z,9.90
2017-12-24T02:27:38.129Z,10.10
2017-12-24T02:30:05.592Z,10.10
2017-12-24T02:32:33.183Z,10.10
2017-12-24T02:35:00.733Z,10.10
2017-12-24T02:37:28.203Z,10.00
2017-12-24T02:39:55.680Z,10.10
2017-12-24T02:42:23.936Z,10.00
2017-12-24T02:44:51.410Z,10.20
2017-12-24T02:47:19.651Z,10.00
2017-12-24T02:49:47.123Z,10.00
2017-12-24T02:52:16.122Z,10.00
2017-12-24T02:54:43.600Z,9.90
2017-12-24T02:57:11.858Z,10.00
2017-12-24T02:59:40.107Z,10.10
2017-12-24T03:02:07.583Z,10.00
2017-12-24T03:04:35.832Z,10.00
2017-12-24T03:07:03.316Z,10.00
2017-12-24T03:09:30.787Z,10.00
2017-12-24T03:11:58.254Z,9.90
2017-12-24T03:14:26.496Z,9.90
2017-12-24T03:16:54.082Z,9.90
2017-12-24T03:19:22.320Z,9.90
2017-12-24T03:21:49.798Z,9.90
2017-12-24T03:24:17.272Z,9.90
2017-12-24T03:26:44.738Z,9.90
2017-12-24T03:29:12.970Z,9.90
2017-12-24T03:31:40.464Z,10.00
2017-12-24T03:34:08.731Z,9.90
2017-12-24T03:36:36.207Z,9.80
2017-12-24T03:39:03.664Z,9.90
2017-12-24T03:41:31.138Z,9.90
2017-12-24T03:43:59.382Z,9.90
2017-12-24T03:46:26.883Z,10.00
2017-12-24T03:48:54.364Z,9.90
2017-12-24T03:51:21.834Z,10.00
2017-12-24T03:53:49.338Z,10.00
2017-12-24T03:56:16.799Z,9.90
2017-12-24T03:58:45.034Z,9.90
2017-12-24T04:01:12.511Z,9.80
2017-12-24T04:03:39.998Z,9.90
2017-12-24T04:06:08.226Z,9.90
2017-12-24T04:08:35.810Z,9.80
2017-12-24T04:11:04.790Z,10.00
2017-12-24T04:13:32.265Z,10.20
2017-12-24T04:15:59.727Z,9.90
2017-12-24T04:18:27.204Z,9.90
2017-12-24T04:20:55.446Z,9.90
2017-12-24T04:23:22.916Z,9.90
2017-12-24T04:25:51.882Z,9.80
2017-12-24T04:28:19.373Z,9.70
2017-12-24T04:30:46.843Z,9.90
2017-12-24T04:33:15.083Z,10.00
2017-12-24T04:35:42.550Z,10.30
2017-12-24T04:38:10.035Z,10.00
2017-12-24T04:40:38.258Z,9.90
2017-12-24T04:43:05.735Z,9.80
2017-12-24T04:45:33.194Z,9.90
2017-12-24T04:48:00.674Z,9.90
2017-12-24T04:50:28.134Z,9.90
2017-12-24T04:52:55.614Z,9.90
2017-12-24T04:55:23.842Z,9.90
2017-12-24T04:57:51.310Z,9.80
2017-12-24T05:00:18.774Z,9.80
2017-12-24T05:02:46.246Z,9.80
2017-12-24T05:05:13.710Z,9.80
2017-12-24T05:07:41.170Z,9.80
2017-12-24T05:10:09.406Z,9.80
2017-12-24T05:12:36.874Z,9.70
2017-12-24T05:15:04.331Z,9.80
2017-12-24T05:17:31.814Z,9.80
2017-12-24T05:20:00.053Z,9.80
2017-12-24T05:22:27.518Z,9.80
2017-12-24T05:24:54.982Z,9.80
2017-12-24T05:27:22.556Z,9.80
2017-12-24T05:29:50.120Z,9.80
2017-12-24T05:32:17.591Z,9.90
2017-12-24T05:34:45.863Z,9.90
2017-12-24T05:37:13.339Z,9.80
2017-12-24T05:39:41.562Z,9.90
2017-12-24T05:42:09.022Z,9.90
2017-12-24T05:44:36.503Z,9.90
2017-12-24T05:47:03.963Z,9.80
2017-12-24T05:49:31.440Z,9.90
2017-12-24T05:51:59.667Z,9.80
2017-12-24T05:54:27.147Z,9.90
2017-12-24T05:56:54.619Z,9.90
2017-12-24T05:59:22.102Z,9.90
2017-12-24T06:01:50.323Z,9.90
2017-12-24T06:04:17.898Z,9.90
2017-12-24T06:06:45.371Z,9.80
2017-12-24T06:09:12.846Z,9.80
2017-12-24T06:11:41.082Z,9.80
2017-12-24T06:14:08.670Z,9.80
2017-12-24T06:16:36.130Z,9.80
2017-12-24T06:19:04.440Z,9.80
2017-12-24T06:21:31.914Z,9.70
2017-12-24T06:23:59.389Z,9.80
2017-12-24T06:26:26.860Z,9.80
2017-12-24T06:28:54.347Z,9.80
2017-12-24T06:31:22.602Z,9.80
2017-12-24T06:33:50.849Z,9.70
2017-12-24T06:36:18.320Z,9.70
2017-12-24T06:38:46.560Z,9.80
2017-12-24T06:41:14.019Z,10.10
2017-12-24T06:43:41.490Z,9.90
2017-12-24T06:46:08.966Z,9.80
2017-12-24T06:48:36.547Z,9.80
2017-12-24T06:51:04.028Z,9.90
2017-12-24T06:53:32.558Z,9.80
2017-12-24T06:56:00.024Z,9.80
2017-12-24T06:58:27.507Z,9.90
2017-12-24T07:00:55.079Z,9.80
2017-12-24T07:03:22.556Z,9.70
2017-12-24T07:05:50.786Z,9.70
2017-12-24T07:08:18.264Z,9.70
2017-12-24T07:10:47.258Z,9.60
2017-12-24T07:13:16.252Z,9.70
2017-12-24T07:15:43.710Z,9.80
2017-12-24T07:18:11.188Z,9.80
2017-12-24T07:20:39.434Z,9.70
2017-12-24T07:23:06.898Z,9.70
2017-12-24T07:25:34.375Z,9.70
2017-12-24T07:28:02.608Z,9.70
2017-12-24T07:30:30.088Z,9.70
2017-12-24T07:32:57.591Z,9.70
2017-12-24T07:35:25.815Z,9.70
2017-12-24T07:37:53.291Z,9.70
2017-12-24T07:40:20.841Z,9.70
2017-12-24T07:42:48.316Z,9.70
2017-12-24T07:45:15.783Z,9.70
2017-12-24T07:47:44.024Z,9.70
2017-12-24T07:50:11.484Z,9.70
2017-12-24T07:52:38.947Z,9.70
2017-12-24T07:55:06.432Z,9.70
2017-12-24T07:57:33.891Z,9.70
2017-12-24T08:00:02.118Z,9.80
2017-12-24T08:02:29.588Z,9.70
2017-12-24T08:04:57.066Z,9.80
2017-12-24T08:07:24.555Z,9.70
2017-12-24T08:09:52.778Z,9.80
2017-12-24T08:12:20.238Z,9.60
2017-12-24T08:14:47.816Z,9.80
2017-12-24T08:17:16.811Z,9.80
2017-12-24T08:19:44.286Z,9.70
2017-12-24T08:22:12.908Z,9.80
2017-12-24T08:24:40.408Z,9.80
2017-12-24T08:27:07.871Z,9.80
2017-12-24T08:29:35.354Z,9.70
2017-12-24T08:32:03.590Z,9.70
2017-12-24T08:34:31.074Z,10.00
2017-12-24T08:36:58.537Z,9.70
2017-12-24T08:39:26.779Z,9.70
2017-12-24T08:41:54.238Z,9.80
2017-12-24T08:44:22.472Z,9.80
2017-12-24T08:46:49.926Z,9.70
2017-12-24T08:49:17.390Z,9.80
2017-12-24T08:51:44.846Z,9.80
2017-12-24T08:54:12.323Z,9.80
2017-12-24T08:56:39.792Z,9.90
2017-12-24T08:59:07.272Z,9.90
2017-12-24T09:01:34.738Z,9.90
2017-12-24T09:04:02.221Z,10.00
2017-12-24T09:06:30.452Z,10.00
2017-12-24T09:08:57.968Z,10.20
2017-12-24T09:11:26.256Z,10.00
2017-12-24T09:13:53.722Z,10.30
2017-12-24T09:16:21.184Z,9.90
2017-12-24T09:18:48.674Z,10.00
2017-12-24T09:21:16.153Z,9.90
2017-12-24T09:23:43.611Z,9.90
2017-12-24T09:26:11.088Z,9.90
2017-12-24T09:28:39.319Z,9.90
2017-12-24T09:31:06.889Z,10.00
2017-12-24T09:33:34.463Z,9.90
2017-12-24T09:36:02.019Z,9.90
2017-12-24T09:38:29.581Z,9.90
2017-12-24T09:40:57.043Z,9.90
2017-12-24T09:43:24.494Z,9.90
2017-12-24T09:45:52.774Z,9.80
2017-12-24T09:48:20.231Z,9.60
2017-12-24T09:50:47.703Z,9.80
2017-12-24T09:53:15.173Z,9.80
2017-12-24T09:55:43.395Z,9.90
2017-12-24T09:58:10.866Z,9.90
2017-12-24T10:00:38.331Z,9.90
2017-12-24T10:03:05.861Z,9.80
2017-12-24T10:05:34.889Z,9.80
2017-12-24T10:08:02.341Z,9.80
2017-12-24T10:10:29.809Z,9.80
2017-12-24T10:12:57.321Z,9.90
2017-12-24T10:15:24.798Z,9.80
2017-12-24T10:17:52.290Z,9.90
2017-12-24T10:20:21.269Z,9.90
2017-12-24T10:22:48.725Z,10.10
2017-12-24T10:25:16.202Z,9.90
2017-12-24T10:27:43.758Z,9.90
2017-12-24T10:30:11.239Z,10.00
2017-12-24T10:32:39.493Z,10.10
2017-12-24T10:35:06.967Z,10.00
2017-12-24T10:37:35.193Z,10.10
2017-12-24T10:40:02.662Z,9.90
2017-12-24T10:42:30.124Z,10.10
2017-12-24T10:44:57.598Z,10.10
2017-12-24T10:47:25.058Z,10.10
2017-12-24T10:49:52.538Z,10.10
2017-12-24T10:52:20.779Z,10.10
2017-12-24T10:54:48.354Z,10.10
2017-12-24T10:57:15.816Z,10.20
2017-12-24T11:00:02.765Z,10.20
2017-12-24T11:02:30.999Z,10.30
2017-12-24T11:04:58.566Z,10.30
2017-12-24T11:07:26.843Z,10.20
2017-12-24T11:09:54.433Z,10.20
2017-12-24T11:12:22.679Z,10.20
2017-12-24T11:14:50.146Z,10.40
2017-12-24T11:17:17.609Z,10.20
2017-12-24T11:19:45.087Z,10.40
2017-12-24T11:22:12.669Z,10.40
2017-12-24T11:24:40.906Z,10.40
2017-12-24T11:27:09.138Z,10.30
2017-12-24T11:29:36.639Z,10.30
2017-12-24T11:32:04.899Z,10.30
2017-12-24T11:34:32.359Z,10.30
2017-12-24T11:36:59.910Z,10.30
2017-12-24T11:39:27.366Z,10.30
2017-12-24T11:41:54.935Z,10.30
2017-12-24T11:44:22.407Z,10.30
2017-12-24T11:46:49.885Z,10.30
2017-12-24T11:49:18.152Z,10.30
2017-12-24T11:51:46.427Z,10.30
2017-12-24T11:54:14.659Z,10.30
2017-12-24T11:56:42.145Z,10.30
2017-12-24T11:59:09.607Z,10.30
2017-12-24T12:01:37.336Z,10.30
2017-12-24T12:04:04.792Z,10.30
2017-12-24T12:06:32.264Z,10.40
2017-12-24T12:08:59.754Z,10.30
2017-12-24T12:11:27.264Z,10.20
2017-12-24T12:13:54.727Z,10.30
2017-12-24T12:16:22.215Z,10.30
2017-12-24T12:18:49.691Z,10.20
2017-12-24T12:21:17.170Z,10.20
2017-12-24T12:23:46.079Z,10.00
2017-12-24T12:26:13.579Z,10.00
2017-12-24T12:28:41.042Z,10.10
2017-12-24T12:31:08.517Z,10.10
2017-12-24T12:33:36.045Z,10.20
2017-12-24T12:36:03.545Z,10.20
2017-12-24T12:38:31.771Z,10.20
2017-12-24T12:40:59.270Z,10.20
2017-12-24T12:43:26.729Z,10.20
2017-12-24T12:45:54.976Z,10.00
2017-12-24T12:48:22.455Z,10.00
2017-12-24T12:50:49.933Z,10.00
2017-12-24T12:53:18.174Z,10.00
2017-12-24T12:55:45.656Z,10.20
2017-12-24T12:58:13.116Z,10.00
2017-12-24T13:00:41.356Z,10.00
2017-12-24T13:03:08.824Z,10.30
2017-12-24T13:05:36.319Z,10.10
2017-12-24T13:08:04.568Z,10.20
2017-12-24T13:10:32.823Z,10.20
2017-12-24T13:13:00.349Z,10.40
2017-12-24T13:15:27.827Z,10.10
2017-12-24T13:17:55.333Z,10.10
2017-12-24T13:20:22.804Z,10.10
2017-12-24T13:22:50.305Z,10.00
2017-12-24T13:25:17.762Z,9.90
2017-12-24T13:27:45.231Z,9.80
2017-12-24T13:30:12.737Z,9.80
2017-12-24T13:32:41.095Z,9.90
2017-12-24T13:35:08.667Z,10.00
2017-12-24T13:37:36.126Z,9.80
2017-12-24T13:40:03.681Z,9.70
2017-12-24T13:42:31.147Z,9.70
2017-12-24T13:44:58.870Z,9.80
2017-12-24T13:47:27.245Z,9.80
2017-12-24T13:49:55.513Z,9.80
2017-12-24T13:52:23.132Z,9.80
2017-12-24T13:54:51.371Z,10.00
2017-12-24T13:57:18.851Z,10.00
2017-12-24T13:59:46.334Z,10.10
2017-12-24T14:02:14.563Z,10.20
2017-12-24T14:04:42.053Z,10.40
2017-12-24T14:07:09.546Z,10.10
2017-12-24T14:09:37.101Z,10.10
2017-12-24T14:12:04.575Z,10.20
2017-12-24T14:14:32.042Z,10.30
2017-12-24T14:16:59.528Z,10.30
2017-12-24T14:19:27.196Z,10.20
2017-12-24T14:21:54.674Z,10.20
2017-12-24T14:24:22.139Z,10.20
2017-12-24T14:26:50.366Z,10.20
2017-12-24T14:29:17.897Z,10.20
2017-12-24T14:31:45.370Z,10.10
2017-12-24T14:34:12.839Z,10.10
2017-12-24T14:36:40.615Z,10.20
2017-12-24T14:39:09.000Z,10.30
2017-12-24T14:41:36.580Z,10.20
2017-12-24T14:44:04.063Z,10.20
2017-12-24T14:46:32.395Z,10.30
2017-12-24T14:48:59.908Z,10.50
2017-12-24T14:51:27.479Z,10.20
2017-12-24T14:53:54.939Z,10.10
2017-12-24T14:56:22.469Z,10.10
2017-12-24T14:58:50.703Z,10.10
2017-12-24T15:01:18.286Z,10.10
2017-12-24T15:03:45.842Z,10.00
2017-12-24T15:06:14.160Z,10.00
2017-12-24T15:08:42.429Z,10.00
2017-12-24T15:11:09.999Z,9.90
2017-12-24T15:13:37.467Z,10.10
2017-12-24T15:16:04.930Z,10.10
2017-12-24T15:18:32.414Z,10.10
2017-12-24T15:20:59.895Z,10.10
2017-12-24T15:23:27.412Z,10.20
2017-12-24T15:25:54.902Z,10.20
2017-12-24T15:28:23.140Z,10.10
2017-12-24T15:30:50.695Z,10.00
2017-12-24T15:33:18.202Z,10.10
2017-12-24T15:35:45.678Z,10.10
2017-12-24T15:38:13.197Z,10.10
2017-12-24T15:40:40.718Z,10.10
2017-12-24T15:43:08.969Z,10.10
2017-12-24T15:45:36.474Z,10.10
2017-12-24T15:48:04.016Z,10.10
2017-12-24T15:50:32.238Z,10.10
2017-12-24T15:52:59.711Z,10.10
2017-12-24T15:55:27.223Z,10.10
2017-12-24T15:57:54.729Z,10.10
2017-12-24T16:00:22.218Z,10.20
2017-12-24T16:02:50.470Z,10.30
2017-12-24T16:05:17.938Z,10.30
2017-12-24T16:07:45.410Z,10.30
2017-12-24T16:10:13.647Z,10.20
2017-12-24T16:12:41.105Z,10.10
2017-12-24T16:15:08.581Z,10.20
2017-12-24T16:17:36.051Z,10.10
2017-12-24T16:20:03.509Z,10.10
2017-12-24T16:22:30.983Z,10.10
2017-12-24T16:24:59.232Z,10.10
2017-12-24T16:27:26.782Z,10.20
2017-12-24T16:29:54.250Z,10.10
2017-12-24T16:32:21.718Z,10.10
2017-12-24T16:34:49.178Z,10.10
2017-12-24T16:37:16.656Z,10.20
2017-12-24T16:39:44.886Z,10.10
2017-12-24T16:42:12.411Z,10.30
2017-12-24T16:44:39.919Z,10.10
2017-12-24T16:47:07.477Z,10.10
2017-12-24T16:49:35.033Z,10.10
2017-12-24T16:52:03.280Z,10.10
2017-12-24T16:54:30.767Z,10.20
2017-12-24T16:56:58.235Z,10.10
2017-12-24T16:59:25.698Z,10.10
2017-12-24T17:01:53.172Z,10.20
2017-12-24T17:04:21.423Z,10.30
2017-12-24T17:06:49.245Z,10.30
2017-12-24T17:09:17.011Z,10.30
2017-12-24T17:11:44.488Z,10.30
2017-12-24T17:14:11.956Z,10.30
2017-12-24T17:16:39.420Z,10.30
2017-12-24T17:19:06.881Z,10.40
2017-12-24T17:21:34.348Z,10.50
2017-12-24T17:24:02.623Z,10.50
2017-12-24T17:26:30.082Z,10.50
2017-12-24T17:28:57.564Z,10.40
2017-12-24T17:31:26.091Z,10.50
2017-12-24T17:33:53.559Z,10.50
2017-12-24T17:36:21.019Z,10.40
2017-12-24T17:38:48.486Z,10.50
2017-12-24T17:41:15.960Z,10.50
2017-12-24T17:43:43.471Z,10.50
2017-12-24T17:46:10.934Z,10.50
2017-12-24T17:48:38.399Z,10.50
2017-12-24T17:51:05.862Z,10.50
2017-12-24T17:53:33.337Z,10.50
2017-12-24T17:56:00.812Z,10.50
2017-12-24T17:58:28.275Z,10.50
2017-12-24T18:00:55.736Z,10.50
2017-12-24T18:03:23.205Z,10.50
2017-12-24T18:05:51.586Z,10.50
2017-12-24T18:08:19.089Z,10.50
2017-12-24T18:10:46.639Z,10.50
2017-12-24T18:13:14.122Z,10.60
2017-12-24T18:15:41.595Z,10.60
2017-12-24T18:18:09.072Z,10.60
2017-12-24T18:20:37.438Z,10.60
2017-12-24T18:23:05.704Z,10.70
2017-12-24T18:25:33.163Z,10.60
2017-12-24T18:28:00.631Z,10.60
2017-12-24T18:30:28.097Z,10.60
2017-12-24T18:32:55.570Z,10.70
2017-12-24T18:35:23.807Z,10.60
2017-12-24T18:37:51.283Z,10.70
2017-12-24T18:40:18.743Z,10.50
2017-12-24T18:42:47.834Z,10.50
2017-12-24T18:45:16.814Z,10.50
2017-12-24T18:47:44.305Z,10.70
2017-12-24T18:50:12.534Z,10.50
2017-12-24T18:52:40.019Z,10.50
2017-12-24T18:55:07.501Z,10.50
2017-12-24T18:57:35.763Z,10.50
2017-12-24T19:00:03.230Z,10.50
2017-12-24T19:02:31.471Z,10.50
2017-12-24T19:04:58.927Z,10.50
2017-12-24T19:07:26.402Z,10.50
2017-12-24T19:09:53.870Z,10.50
2017-12-24T19:12:21.326Z,10.50
2017-12-24T19:14:48.798Z,10.50
2017-12-24T19:17:17.026Z,10.50
2017-12-24T19:19:44.503Z,10.50
2017-12-24T19:22:12.073Z,10.50
2017-12-24T19:24:39.626Z,10.60
2017-12-24T19:27:07.054Z,10.60
2017-12-24T19:29:34.522Z,10.60
2017-12-24T19:32:01.983Z,10.50
2017-12-24T19:34:29.455Z,10.50
2017-12-24T19:36:56.955Z,10.40
2017-12-24T19:39:25.213Z,10.40
2017-12-24T19:41:52.696Z,10.40
2017-12-24T19:44:20.171Z,10.40
2017-12-24T19:46:47.627Z,10.30
2017-12-24T19:49:15.095Z,10.30
2017-12-24T19:51:42.558Z,10.30
2017-12-24T19:54:10.036Z,10.30
2017-12-24T19:56:37.501Z,10.40
2017-12-24T19:59:04.975Z,10.40
2017-12-24T20:01:32.435Z,10.30
2017-12-24T20:03:59.936Z,10.40
2017-12-24T20:06:27.406Z,10.30
2017-12-24T20:08:54.875Z,10.30
2017-12-24T20:11:22.353Z,10.30
2017-12-24T20:13:50.589Z,10.30
2017-12-24T20:16:18.060Z,10.50
2017-12-24T20:18:45.521Z,10.20
2017-12-24T20:21:12.999Z,10.20
2017-12-24T20:23:41.331Z,10.20
2017-12-24T20:26:08.868Z,10.30
2017-12-24T20:28:36.325Z,10.20
2017-12-24T20:31:04.614Z,10.20
2017-12-24T20:33:32.843Z,10.10
2017-12-24T20:36:00.311Z,10.20
2017-12-24T20:38:27.802Z,10.20
2017-12-24T20:40:56.035Z,10.20
2017-12-24T20:43:23.580Z,10.10
2017-12-24T20:45:51.054Z,10.10
2017-12-24T20:48:18.577Z,10.10
2017-12-24T20:50:46.060Z,10.10
2017-12-24T20:53:13.536Z,10.10
2017-12-24T20:55:41.037Z,10.10
2017-12-24T20:58:09.289Z,10.10
2017-12-24T21:00:36.798Z,10.00
2017-12-24T21:03:04.281Z,10.10
2017-12-24T21:05:31.806Z,10.10
2017-12-24T21:07:59.286Z,10.10
2017-12-24T21:10:26.777Z,10.10
2017-12-24T21:12:54.306Z,10.20
2017-12-24T21:15:21.768Z,10.20
2017-12-24T21:17:49.254Z,10.20
2017-12-24T21:20:16.824Z,10.20
2017-12-24T21:22:45.799Z,10.30
2017-12-24T21:25:13.255Z,10.30
2017-12-24T21:27:40.731Z,10.20
2017-12-24T21:30:08.204Z,10.30
2017-12-24T21:32:35.676Z,10.30
2017-12-24T21:35:03.901Z,10.20
2017-12-24T21:37:31.382Z,10.30
2017-12-24T21:39:58.847Z,10.20
2017-12-24T21:42:26.351Z,10.20
2017-12-24T21:44:53.814Z,10.20
2017-12-24T21:47:21.297Z,10.20
2017-12-24T21:49:48.795Z,10.20
2017-12-24T21:52:17.030Z,10.20
2017-12-24T21:54:44.515Z,10.30
2017-12-24T21:57:12.235Z,10.20
2017-12-24T21:59:39.770Z,10.10
2017-12-24T22:02:07.234Z,10.10
2017-12-24T22:04:34.698Z,10.30
2017-12-24T22:07:02.195Z,10.30
2017-12-24T22:09:29.683Z,10.30
2017-12-24T22:11:57.955Z,10.20
2017-12-24T22:14:26.238Z,10.10
2017-12-24T22:16:54.531Z,10.20
2017-12-24T22:19:22.756Z,10.10
2017-12-24T22:21:50.238Z,10.00
2017-12-24T22:24:17.741Z,10.10
2017-12-24T22:26:45.234Z,10.10
2017-12-24T22:29:12.671Z,9.90
2017-12-24T22:31:40.143Z,9.90
2017-12-24T22:34:07.612Z,10.00
2017-12-24T22:36:35.076Z,9.90
2017-12-24T22:39:02.543Z,9.80
2017-12-24T22:41:30.020Z,9.90
2017-12-24T22:43:58.251Z,9.90
2017-12-24T22:46:25.718Z,9.80
2017-12-24T22:48:53.191Z,9.90
2017-12-24T22:51:20.642Z,9.80
2017-12-24T22:53:48.121Z,9.80
2017-12-24T22:56:15.567Z,9.90
2017-12-24T22:58:43.043Z,9.90
2017-12-24T23:01:11.343Z,9.80
2017-12-24T23:03:39.015Z,9.80
2017-12-24T23:06:06.522Z,9.80
2017-12-24T23:08:34.000Z,9.70
2017-12-24T23:11:02.233Z,9.80
2017-12-24T23:13:29.723Z,9.70
2017-12-24T23:15:57.167Z,9.80
2017-12-24T23:18:24.655Z,9.90
2017-12-24T23:20:52.892Z,9.80
2017-12-24T23:23:20.351Z,9.80
2017-12-24T23:25:47.915Z,9.80
2017-12-24T23:28:15.382Z,9.90
2017-12-24T23:30:43.203Z,9.90
2017-12-24T23:33:11.426Z,9.90
2017-12-24T23:35:38.901Z,10.00
2017-12-24T23:38:07.152Z,9.80
2017-12-24T23:40:34.610Z,9.80
2017-12-24T23:43:02.083Z,9.90
2017-12-24T23:45:29.570Z,9.90
2017-12-24T23:47:57.811Z,9.90
2017-12-24T23:50:25.290Z,9.90
2017-12-24T23:52:53.542Z,9.80
2017-12-24T23:55:21.061Z,9.70
2017-12-24T23:57:48.615Z,9.90
